Terminal Aerodrome Forecast
Issued by NWS

Home | Current Version | Previous Version | Text Only | Print | Product List | Glossary On
Versions: 1 2 3 4 5 6 7 8 9 10 11 12 13 14
000
FTUS42 TJSJ 272300
TAFJPS
TAF
TJPS 272330Z 2800/2824 06004KT P6SM FEW030
     FM281430 14010KT P6SM FEW030
     FM282200 05003KT P6SM FEW030
      AMD NOT SKED TIL 280300=

USA.gov is the U.S. government's official web portal to all federal, state and local government web resources and services.